sensor_id;sensor_type;location;lat;lon;timestamp;temperature;humidity
36716;DHT22;22699;51.034;3.730;2023-04-15T00:01:31;13.00;91.20
36716;DHT22;22699;51.034;3.730;2023-04-15T00:03:58;13.00;91.20
36716;DHT22;22699;51.034;3.730;2023-04-15T00:06:26;13.00;91.20
36716;DHT22;22699;51.034;3.730;2023-04-15T00:08:53;13.00;91.10
36716;DHT22;22699;51.034;3.730;2023-04-15T00:11:18;12.90;91.00
36716;DHT22;22699;51.034;3.730;2023-04-15T00:13:44;13.00;91.10
36716;DHT22;22699;51.034;3.730;2023-04-15T00:16:16;13.00;91.10
36716;DHT22;22699;51.034;3.730;2023-04-15T00:18:43;13.10;91.10
36716;DHT22;22699;51.034;3.730;2023-04-15T00:21:09;13.00;91.20
36716;DHT22;22699;51.034;3.730;2023-04-15T00:23:35;12.90;91.30
36716;DHT22;22699;51.034;3.730;2023-04-15T00:26:01;12.80;91.40
36716;DHT22;22699;51.034;3.730;2023-04-15T00:28:28;12.70;91.40
36716;DHT22;22699;51.034;3.730;2023-04-15T00:30:54;12.70;91.60
36716;DHT22;22699;51.034;3.730;2023-04-15T00:33:20;12.60;91.80
36716;DHT22;22699;51.034;3.730;2023-04-15T00:35:50;12.50;92.10
36716;DHT22;22699;51.034;3.730;2023-04-15T00:38:17;12.60;92.20
36716;DHT22;22699;51.034;3.730;2023-04-15T00:40:43;12.60;92.30
36716;DHT22;22699;51.034;3.730;2023-04-15T00:43:09;12.70;92.30
36716;DHT22;22699;51.034;3.730;2023-04-15T00:45:35;12.80;92.30
36716;DHT22;22699;51.034;3.730;2023-04-15T00:48:01;12.80;92.30
36716;DHT22;22699;51.034;3.730;2023-04-15T00:50:27;12.70;92.40
36716;DHT22;22699;51.034;3.730;2023-04-15T00:52:54;12.60;92.50
36716;DHT22;22699;51.034;3.730;2023-04-15T00:55:21;12.70;92.70
36716;DHT22;22699;51.034;3.730;2023-04-15T00:57:47;12.70;92.80
36716;DHT22;22699;51.034;3.730;2023-04-15T01:00:19;12.70;92.80
36716;DHT22;22699;51.034;3.730;2023-04-15T01:02:46;12.70;92.90
36716;DHT22;22699;51.034;3.730;2023-04-15T01:05:16;12.70;93.20
36716;DHT22;22699;51.034;3.730;2023-04-15T01:07:43;12.50;93.40
36716;DHT22;22699;51.034;3.730;2023-04-15T01:10:09;12.50;93.60
36716;DHT22;22699;51.034;3.730;2023-04-15T01:12:38;12.40;93.80
36716;DHT22;22699;51.034;3.730;2023-04-15T01:15:04;12.40;94.20
36716;DHT22;22699;51.034;3.730;2023-04-15T01:17:33;12.30;94.50
36716;DHT22;22699;51.034;3.730;2023-04-15T01:19:59;12.30;94.70
36716;DHT22;22699;51.034;3.730;2023-04-15T01:22:27;12.30;95.00
36716;DHT22;22699;51.034;3.730;2023-04-15T01:25:08;12.20;95.20
36716;DHT22;22699;51.034;3.730;2023-04-15T01:27:36;12.00;95.80
36716;DHT22;22699;51.034;3.730;2023-04-15T01:30:03;11.90;96.40
36716;DHT22;22699;51.034;3.730;2023-04-15T01:32:31;11.90;97.10
36716;DHT22;22699;51.034;3.730;2023-04-15T01:34:56;11.80;97.70
36716;DHT22;22699;51.034;3.730;2023-04-15T01:37:23;11.60;98.90
36716;DHT22;22699;51.034;3.730;2023-04-15T01:39:49;11.60;99.90
36716;DHT22;22699;51.034;3.730;2023-04-15T01:42:16;11.50;99.90
36716;DHT22;22699;51.034;3.730;2023-04-15T01:44:41;11.40;99.90
36716;DHT22;22699;51.034;3.730;2023-04-15T01:47:07;11.30;99.90
36716;DHT22;22699;51.034;3.730;2023-04-15T01:49:33;11.30;99.90
36716;DHT22;22699;51.034;3.730;2023-04-15T01:52:01;11.40;99.90
36716;DHT22;22699;51.034;3.730;2023-04-15T01:54:26;11.60;99.90
36716;DHT22;22699;51.034;3.730;2023-04-15T01:56:52;11.70;99.90
36716;DHT22;22699;51.034;3.730;2023-04-15T01:59:18;11.80;99.90
36716;DHT22;22699;51.034;3.730;2023-04-15T02:01:47;11.80;99.90
36716;DHT22;22699;51.034;3.730;2023-04-15T02:04:14;11.80;99.90
36716;DHT22;22699;51.034;3.730;2023-04-15T02:06:44;11.70;99.90
36716;DHT22;22699;51.034;3.730;2023-04-15T02:09:11;11.80;99.90
36716;DHT22;22699;51.034;3.730;2023-04-15T02:11:39;12.00;99.90
36716;DHT22;22699;51.034;3.730;2023-04-15T02:14:06;12.00;99.90
36716;DHT22;22699;51.034;3.730;2023-04-15T02:16:32;11.90;99.90
36716;DHT22;22699;51.034;3.730;2023-04-15T02:18:59;11.70;99.90
36716;DHT22;22699;51.034;3.730;2023-04-15T02:21:27;11.70;99.90
36716;DHT22;22699;51.034;3.730;2023-04-15T02:23:53;11.60;99.90
36716;DHT22;22699;51.034;3.730;2023-04-15T02:26:19;11.60;99.90
36716;DHT22;22699;51.034;3.730;2023-04-15T02:28:46;11.50;99.90
36716;DHT22;22699;51.034;3.730;2023-04-15T02:31:14;11.40;99.90
36716;DHT22;22699;51.034;3.730;2023-04-15T02:33:45;11.30;99.90
36716;DHT22;22699;51.034;3.730;2023-04-15T02:36:12;11.30;99.90
36716;DHT22;22699;51.034;3.730;2023-04-15T02:38:38;11.20;99.90
36716;DHT22;22699;51.034;3.730;2023-04-15T02:41:09;11.20;99.90
36716;DHT22;22699;51.034;3.730;2023-04-15T02:43:41;11.20;99.90
36716;DHT22;22699;51.034;3.730;2023-04-15T02:46:09;11.30;99.90
36716;DHT22;22699;51.034;3.730;2023-04-15T02:48:38;11.40;99.90
36716;DHT22;22699;51.034;3.730;2023-04-15T02:51:20;11.30;99.90
36716;DHT22;22699;51.034;3.730;2023-04-15T02:53:50;11.30;99.90
36716;DHT22;22699;51.034;3.730;2023-04-15T02:56:16;11.20;99.90
36716;DHT22;22699;51.034;3.730;2023-04-15T02:58:44;11.20;99.90
36716;DHT22;22699;51.034;3.730;2023-04-15T03:01:10;11.30;99.90
36716;DHT22;22699;51.034;3.730;2023-04-15T03:03:36;11.30;99.90
36716;DHT22;22699;51.034;3.730;2023-04-15T03:06:04;11.30;99.90
36716;DHT22;22699;51.034;3.730;2023-04-15T03:08:30;11.40;99.90
36716;DHT22;22699;51.034;3.730;2023-04-15T03:10:57;11.50;99.90
36716;DHT22;22699;51.034;3.730;2023-04-15T03:13:25;11.50;99.90
36716;DHT22;22699;51.034;3.730;2023-04-15T03:15:51;11.30;99.90
36716;DHT22;22699;51.034;3.730;2023-04-15T03:18:18;11.30;99.90
36716;DHT22;22699;51.034;3.730;2023-04-15T03:20:43;11.40;99.90
36716;DHT22;22699;51.034;3.730;2023-04-15T03:23:09;11.40;99.90
36716;DHT22;22699;51.034;3.730;2023-04-15T03:25:36;11.30;99.90
36716;DHT22;22699;51.034;3.730;2023-04-15T03:28:03;11.30;99.90
36716;DHT22;22699;51.034;3.730;2023-04-15T03:30:29;11.20;99.90
36716;DHT22;22699;51.034;3.730;2023-04-15T03:32:56;11.10;99.90
36716;DHT22;22699;51.034;3.730;2023-04-15T03:35:23;11.00;99.90
36716;DHT22;22699;51.034;3.730;2023-04-15T03:37:49;11.00;99.90
36716;DHT22;22699;51.034;3.730;2023-04-15T03:40:15;11.00;99.90
36716;DHT22;22699;51.034;3.730;2023-04-15T03:42:40;10.90;99.90
36716;DHT22;22699;51.034;3.730;2023-04-15T03:45:09;10.90;99.90
36716;DHT22;22699;51.034;3.730;2023-04-15T03:47:36;10.90;99.90
36716;DHT22;22699;51.034;3.730;2023-04-15T03:50:02;10.80;99.90
36716;DHT22;22699;51.034;3.730;2023-04-15T03:52:30;10.80;99.90
36716;DHT22;22699;51.034;3.730;2023-04-15T03:54:56;10.90;99.90
36716;DHT22;22699;51.034;3.730;2023-04-15T03:57:22;10.80;99.90
36716;DHT22;22699;51.034;3.730;2023-04-15T03:59:47;10.80;99.90
36716;DHT22;22699;51.034;3.730;2023-04-15T04:02:14;10.90;99.90
36716;DHT22;22699;51.034;3.730;2023-04-15T04:04:40;10.90;99.90
36716;DHT22;22699;51.034;3.730;2023-04-15T04:07:06;10.90;99.90
36716;DHT22;22699;51.034;3.730;2023-04-15T04:09:35;10.90;99.90
36716;DHT22;22699;51.034;3.730;2023-04-15T04:12:09;10.90;99.90
36716;DHT22;22699;51.034;3.730;2023-04-15T04:14:35;10.90;99.90
36716;DHT22;22699;51.034;3.730;2023-04-15T04:17:00;10.90;99.90
36716;DHT22;22699;51.034;3.730;2023-04-15T04:19:27;10.90;99.90
36716;DHT22;22699;51.034;3.730;2023-04-15T04:22:00;10.80;99.90
36716;DHT22;22699;51.034;3.730;2023-04-15T04:24:26;10.80;99.90
36716;DHT22;22699;51.034;3.730;2023-04-15T04:26:53;10.70;99.90
36716;DHT22;22699;51.034;3.730;2023-04-15T04:29:19;10.70;99.90
36716;DHT22;22699;51.034;3.730;2023-04-15T04:31:45;10.70;99.90
36716;DHT22;22699;51.034;3.730;2023-04-15T04:34:13;10.70;99.90
36716;DHT22;22699;51.034;3.730;2023-04-15T04:36:38;10.70;99.90
36716;DHT22;22699;51.034;3.730;2023-04-15T04:39:04;10.70;99.90
36716;DHT22;22699;51.034;3.730;2023-04-15T04:41:30;10.60;99.90
36716;DHT22;22699;51.034;3.730;2023-04-15T04:43:57;10.70;99.90
36716;DHT22;22699;51.034;3.730;2023-04-15T04:46:23;10.70;99.90
36716;DHT22;22699;51.034;3.730;2023-04-15T04:48:48;10.70;99.90
36716;DHT22;22699;51.034;3.730;2023-04-15T04:51:14;10.70;99.90
36716;DHT22;22699;51.034;3.730;2023-04-15T04:53:41;10.70;99.90
36716;DHT22;22699;51.034;3.730;2023-04-15T04:56:07;10.70;99.90
36716;DHT22;22699;51.034;3.730;2023-04-15T04:58:34;10.70;99.90
36716;DHT22;22699;51.034;3.730;2023-04-15T05:01:00;10.60;99.90
36716;DHT22;22699;51.034;3.730;2023-04-15T05:03:27;10.60;99.90
36716;DHT22;22699;51.034;3.730;2023-04-15T05:05:53;10.70;99.90
36716;DHT22;22699;51.034;3.730;2023-04-15T05:08:19;10.70;99.90
36716;DHT22;22699;51.034;3.730;2023-04-15T05:10:45;10.70;99.90
36716;DHT22;22699;51.034;3.730;2023-04-15T05:13:10;10.70;99.90
36716;DHT22;22699;51.034;3.730;2023-04-15T05:15:37;10.80;99.90
36716;DHT22;22699;51.034;3.730;2023-04-15T05:18:05;11.10;99.90
36716;DHT22;22699;51.034;3.730;2023-04-15T05:20:32;11.00;99.90
36716;DHT22;22699;51.034;3.730;2023-04-15T05:22:58;11.00;99.90
36716;DHT22;22699;51.034;3.730;2023-04-15T05:25:23;11.00;99.90
36716;DHT22;22699;51.034;3.730;2023-04-15T05:27:51;11.00;99.90
36716;DHT22;22699;51.034;3.730;2023-04-15T05:30:16;11.00;99.90
36716;DHT22;22699;51.034;3.730;2023-04-15T05:32:42;11.00;99.90
36716;DHT22;22699;51.034;3.730;2023-04-15T05:35:11;11.10;99.90
36716;DHT22;22699;51.034;3.730;2023-04-15T05:37:36;11.10;99.90
36716;DHT22;22699;51.034;3.730;2023-04-15T05:40:02;11.10;99.90
36716;DHT22;22699;51.034;3.730;2023-04-15T05:42:29;11.20;99.90
36716;DHT22;22699;51.034;3.730;2023-04-15T05:44:56;11.10;99.90
36716;DHT22;22699;51.034;3.730;2023-04-15T05:47:24;10.90;99.90
36716;DHT22;22699;51.034;3.730;2023-04-15T05:49:50;10.90;99.90
36716;DHT22;22699;51.034;3.730;2023-04-15T05:52:17;10.90;99.90
36716;DHT22;22699;51.034;3.730;2023-04-15T05:54:44;11.00;99.90
36716;DHT22;22699;51.034;3.730;2023-04-15T05:57:10;11.00;99.90
36716;DHT22;22699;51.034;3.730;2023-04-15T05:59:37;11.10;99.90
36716;DHT22;22699;51.034;3.730;2023-04-15T06:02:03;11.30;99.90
36716;DHT22;22699;51.034;3.730;2023-04-15T06:04:30;11.40;99.90
36716;DHT22;22699;51.034;3.730;2023-04-15T06:06:56;11.50;99.90
36716;DHT22;22699;51.034;3.730;2023-04-15T06:09:23;11.50;99.90
36716;DHT22;22699;51.034;3.730;2023-04-15T06:11:50;11.50;99.90
36716;DHT22;22699;51.034;3.730;2023-04-15T06:14:16;11.50;99.90
36716;DHT22;22699;51.034;3.730;2023-04-15T06:16:42;11.60;99.90
36716;DHT22;22699;51.034;3.730;2023-04-15T06:19:07;11.80;99.90
36716;DHT22;22699;51.034;3.730;2023-04-15T06:21:33;12.10;99.90
36716;DHT22;22699;51.034;3.730;2023-04-15T06:23:59;12.20;99.90
36716;DHT22;22699;51.034;3.730;2023-04-15T06:26:26;12.30;99.90
36716;DHT22;22699;51.034;3.730;2023-04-15T06:28:51;12.40;99.90
36716;DHT22;22699;51.034;3.730;2023-04-15T06:31:17;12.50;99.90
36716;DHT22;22699;51.034;3.730;2023-04-15T06:33:42;12.60;99.90
36716;DHT22;22699;51.034;3.730;2023-04-15T06:36:08;12.60;99.90
36716;DHT22;22699;51.034;3.730;2023-04-15T06:38:34;12.70;99.90
36716;DHT22;22699;51.034;3.730;2023-04-15T06:41:00;12.70;99.90
36716;DHT22;22699;51.034;3.730;2023-04-15T06:43:25;12.80;99.90
36716;DHT22;22699;51.034;3.730;2023-04-15T06:45:51;13.10;99.90
36716;DHT22;22699;51.034;3.730;2023-04-15T06:48:17;13.20;99.90
36716;DHT22;22699;51.034;3.730;2023-04-15T06:50:42;13.40;99.90
36716;DHT22;22699;51.034;3.730;2023-04-15T06:53:11;13.60;99.90
36716;DHT22;22699;51.034;3.730;2023-04-15T06:55:40;13.70;99.90
36716;DHT22;22699;51.034;3.730;2023-04-15T06:58:07;14.00;99.90
36716;DHT22;22699;51.034;3.730;2023-04-15T07:00:35;14.10;99.90
36716;DHT22;22699;51.034;3.730;2023-04-15T07:03:04;14.20;99.90
36716;DHT22;22699;51.034;3.730;2023-04-15T07:05:32;14.20;99.90
36716;DHT22;22699;51.034;3.730;2023-04-15T07:08:01;14.60;99.90
36716;DHT22;22699;51.034;3.730;2023-04-15T07:10:26;14.40;99.90
36716;DHT22;22699;51.034;3.730;2023-04-15T07:12:55;14.70;99.90
36716;DHT22;22699;51.034;3.730;2023-04-15T07:15:26;14.40;99.90
36716;DHT22;22699;51.034;3.730;2023-04-15T07:17:56;14.30;99.90
36716;DHT22;22699;51.034;3.730;2023-04-15T07:20:24;14.30;99.90
36716;DHT22;22699;51.034;3.730;2023-04-15T07:22:50;14.40;99.90
36716;DHT22;22699;51.034;3.730;2023-04-15T07:25:15;14.80;99.90
36716;DHT22;22699;51.034;3.730;2023-04-15T07:27:44;15.00;99.90
36716;DHT22;22699;51.034;3.730;2023-04-15T07:30:10;15.40;99.90
36716;DHT22;22699;51.034;3.730;2023-04-15T07:32:37;15.40;99.90
36716;DHT22;22699;51.034;3.730;2023-04-15T07:35:04;15.50;99.90
36716;DHT22;22699;51.034;3.730;2023-04-15T07:37:29;15.60;99.90
36716;DHT22;22699;51.034;3.730;2023-04-15T07:39:56;15.40;99.90
36716;DHT22;22699;51.034;3.730;2023-04-15T07:42:22;15.70;99.90
36716;DHT22;22699;51.034;3.730;2023-04-15T07:44:50;15.90;99.40
36716;DHT22;22699;51.034;3.730;2023-04-15T07:47:16;15.70;98.50
36716;DHT22;22699;51.034;3.730;2023-04-15T07:49:43;15.20;98.90
36716;DHT22;22699;51.034;3.730;2023-04-15T07:52:09;14.90;99.20
36716;DHT22;22699;51.034;3.730;2023-04-15T07:54:39;14.40;99.30
36716;DHT22;22699;51.034;3.730;2023-04-15T07:57:08;13.90;99.50
36716;DHT22;22699;51.034;3.730;2023-04-15T07:59:34;13.90;99.90
36716;DHT22;22699;51.034;3.730;2023-04-15T08:02:01;14.10;99.90
36716;DHT22;22699;51.034;3.730;2023-04-15T08:04:26;14.30;99.90
36716;DHT22;22699;51.034;3.730;2023-04-15T08:06:53;14.30;99.80
36716;DHT22;22699;51.034;3.730;2023-04-15T08:09:19;14.40;99.90
36716;DHT22;22699;51.034;3.730;2023-04-15T08:11:49;15.20;99.30
36716;DHT22;22699;51.034;3.730;2023-04-15T08:14:23;16.90;97.90
36716;DHT22;22699;51.034;3.730;2023-04-15T08:16:49;18.50;94.80
36716;DHT22;22699;51.034;3.730;2023-04-15T08:19:15;18.60;92.50
36716;DHT22;22699;51.034;3.730;2023-04-15T08:21:41;20.30;91.00
36716;DHT22;22699;51.034;3.730;2023-04-15T08:24:08;21.80;85.10
36716;DHT22;22699;51.034;3.730;2023-04-15T08:26:37;21.10;79.90
36716;DHT22;22699;51.034;3.730;2023-04-15T08:29:02;19.90;80.50
36716;DHT22;22699;51.034;3.730;2023-04-15T08:31:31;20.20;80.30
36716;DHT22;22699;51.034;3.730;2023-04-15T08:33:59;20.20;80.50
36716;DHT22;22699;51.034;3.730;2023-04-15T08:36:24;20.90;80.20
36716;DHT22;22699;51.034;3.730;2023-04-15T08:38:59;22.50;73.30
36716;DHT22;22699;51.034;3.730;2023-04-15T08:41:50;22.70;70.80
36716;DHT22;22699;51.034;3.730;2023-04-15T08:44:24;22.20;71.40
36716;DHT22;22699;51.034;3.730;2023-04-15T08:46:55;20.40;72.70
36716;DHT22;22699;51.034;3.730;2023-04-15T08:49:25;20.50;74.00
36716;DHT22;22699;51.034;3.730;2023-04-15T08:51:57;20.50;71.90
36716;DHT22;22699;51.034;3.730;2023-04-15T08:54:26;19.10;74.50
36716;DHT22;22699;51.034;3.730;2023-04-15T08:56:56;19.10;75.00
36716;DHT22;22699;51.034;3.730;2023-04-15T08:59:25;18.80;76.30
36716;DHT22;22699;51.034;3.730;2023-04-15T09:01:51;18.20;77.50
36716;DHT22;22699;51.034;3.730;2023-04-15T09:04:18;17.50;79.70
36716;DHT22;22699;51.034;3.730;2023-04-15T09:06:46;17.00;82.40
36716;DHT22;22699;51.034;3.730;2023-04-15T09:09:17;16.80;82.60
36716;DHT22;22699;51.034;3.730;2023-04-15T09:11:49;16.40;84.00
36716;DHT22;22699;51.034;3.730;2023-04-15T09:14:16;16.60;82.90
36716;DHT22;22699;51.034;3.730;2023-04-15T09:17:02;16.70;83.30
36716;DHT22;22699;51.034;3.730;2023-04-15T09:19:31;16.90;82.90
36716;DHT22;22699;51.034;3.730;2023-04-15T09:22:01;16.80;83.30
36716;DHT22;22699;51.034;3.730;2023-04-15T09:24:41;17.00;83.40
36716;DHT22;22699;51.034;3.730;2023-04-15T09:27:09;16.90;83.20
36716;DHT22;22699;51.034;3.730;2023-04-15T09:29:41;17.00;83.00
36716;DHT22;22699;51.034;3.730;2023-04-15T09:32:57;16.90;83.40
36716;DHT22;22699;51.034;3.730;2023-04-15T09:35:27;17.10;84.50
36716;DHT22;22699;51.034;3.730;2023-04-15T09:38:10;17.40;83.60
36716;DHT22;22699;51.034;3.730;2023-04-15T09:40:45;17.60;83.00
36716;DHT22;22699;51.034;3.730;2023-04-15T09:43:16;17.80;83.10
36716;DHT22;22699;51.034;3.730;2023-04-15T09:45:57;17.10;83.30
36716;DHT22;22699;51.034;3.730;2023-04-15T11:01:00;15.60;82.80
36716;DHT22;22699;51.034;3.730;2023-04-15T11:17:11;15.70;80.60
36716;DHT22;22699;51.034;3.730;2023-04-15T11:20:05;15.80;78.20
36716;DHT22;22699;51.034;3.730;2023-04-15T11:26:42;15.70;74.50
36716;DHT22;22699;51.034;3.730;2023-04-15T11:33:58;15.90;75.20
36716;DHT22;22699;51.034;3.730;2023-04-15T11:44:22;15.70;74.70
36716;DHT22;22699;51.034;3.730;2023-04-15T11:58:29;15.40;67.60
36716;DHT22;22699;51.034;3.730;2023-04-15T12:09:14;15.30;72.10
36716;DHT22;22699;51.034;3.730;2023-04-15T12:15:48;15.30;68.30
36716;DHT22;22699;51.034;3.730;2023-04-15T12:22:36;15.60;69.60
36716;DHT22;22699;51.034;3.730;2023-04-15T12:26:04;15.50;68.90
36716;DHT22;22699;51.034;3.730;2023-04-15T12:36:16;15.70;70.40
36716;DHT22;22699;51.034;3.730;2023-04-15T12:43:09;15.60;72.00
36716;DHT22;22699;51.034;3.730;2023-04-15T12:46:24;15.40;70.90
36716;DHT22;22699;51.034;3.730;2023-04-15T13:32:46;15.90;69.70
36716;DHT22;22699;51.034;3.730;2023-04-15T13:39:14;16.10;71.10
36716;DHT22;22699;51.034;3.730;2023-04-15T13:49:36;16.10;70.70
36716;DHT22;22699;51.034;3.730;2023-04-15T13:52:27;15.70;74.70
36716;DHT22;22699;51.034;3.730;2023-04-15T14:30:00;15.50;86.10
36716;DHT22;22699;51.034;3.730;2023-04-15T14:32:26;15.50;86.40
36716;DHT22;22699;51.034;3.730;2023-04-15T14:34:52;15.40;87.10
36716;DHT22;22699;51.034;3.730;2023-04-15T14:37:24;15.60;86.30
36716;DHT22;22699;51.034;3.730;2023-04-15T14:39:51;15.60;85.50
36716;DHT22;22699;51.034;3.730;2023-04-15T14:42:18;15.50;83.20
36716;DHT22;22699;51.034;3.730;2023-04-15T14:44:43;15.60;81.10
36716;DHT22;22699;51.034;3.730;2023-04-15T14:47:09;15.50;80.80
36716;DHT22;22699;51.034;3.730;2023-04-15T14:49:35;15.30;81.40
36716;DHT22;22699;51.034;3.730;2023-04-15T14:52:04;15.40;81.30
36716;DHT22;22699;51.034;3.730;2023-04-15T14:54:31;15.50;79.90
36716;DHT22;22699;51.034;3.730;2023-04-15T14:56:58;15.50;79.40
36716;DHT22;22699;51.034;3.730;2023-04-15T14:59:26;15.40;78.90
36716;DHT22;22699;51.034;3.730;2023-04-15T15:01:52;15.50;79.50
36716;DHT22;22699;51.034;3.730;2023-04-15T15:04:18;15.40;77.00
36716;DHT22;22699;51.034;3.730;2023-04-15T15:06:45;15.20;74.60
36716;DHT22;22699;51.034;3.730;2023-04-15T15:09:11;15.20;75.40
36716;DHT22;22699;51.034;3.730;2023-04-15T15:11:43;15.20;76.50
36716;DHT22;22699;51.034;3.730;2023-04-15T15:14:12;15.20;76.30
36716;DHT22;22699;51.034;3.730;2023-04-15T15:16:40;15.30;74.00
36716;DHT22;22699;51.034;3.730;2023-04-15T15:19:06;15.20;76.30
36716;DHT22;22699;51.034;3.730;2023-04-15T15:21:41;15.10;74.20
36716;DHT22;22699;51.034;3.730;2023-04-15T15:24:07;15.10;73.00
36716;DHT22;22699;51.034;3.730;2023-04-15T15:26:35;15.20;72.60
36716;DHT22;22699;51.034;3.730;2023-04-15T15:29:02;15.10;73.70
36716;DHT22;22699;51.034;3.730;2023-04-15T15:31:29;15.00;76.20
36716;DHT22;22699;51.034;3.730;2023-04-15T15:33:56;14.70;76.30
36716;DHT22;22699;51.034;3.730;2023-04-15T15:36:22;15.00;76.30
36716;DHT22;22699;51.034;3.730;2023-04-15T15:38:47;15.10;76.70
36716;DHT22;22699;51.034;3.730;2023-04-15T15:41:14;15.10;78.00
36716;DHT22;22699;51.034;3.730;2023-04-15T15:43:40;15.00;77.60
36716;DHT22;22699;51.034;3.730;2023-04-15T15:46:05;15.00;77.40
36716;DHT22;22699;51.034;3.730;2023-04-15T15:48:31;15.10;78.50
36716;DHT22;22699;51.034;3.730;2023-04-15T15:50:56;14.90;78.70
36716;DHT22;22699;51.034;3.730;2023-04-15T15:53:23;14.70;79.50
36716;DHT22;22699;51.034;3.730;2023-04-15T15:55:50;14.70;80.60
36716;DHT22;22699;51.034;3.730;2023-04-15T15:58:15;14.70;79.60
36716;DHT22;22699;51.034;3.730;2023-04-15T16:00:41;14.70;80.20
36716;DHT22;22699;51.034;3.730;2023-04-15T16:03:07;14.60;78.60
36716;DHT22;22699;51.034;3.730;2023-04-15T16:05:33;14.50;77.80
36716;DHT22;22699;51.034;3.730;2023-04-15T16:08:01;14.50;77.30
36716;DHT22;22699;51.034;3.730;2023-04-15T16:10:27;14.80;79.10
36716;DHT22;22699;51.034;3.730;2023-04-15T16:12:53;14.50;79.90
36716;DHT22;22699;51.034;3.730;2023-04-15T16:15:21;14.40;79.20
36716;DHT22;22699;51.034;3.730;2023-04-15T16:17:48;14.40;79.30
36716;DHT22;22699;51.034;3.730;2023-04-15T16:20:14;14.40;78.80
36716;DHT22;22699;51.034;3.730;2023-04-15T16:22:40;14.40;77.10
36716;DHT22;22699;51.034;3.730;2023-04-15T16:25:08;14.30;77.40
36716;DHT22;22699;51.034;3.730;2023-04-15T16:27:34;14.20;78.70
36716;DHT22;22699;51.034;3.730;2023-04-15T16:30:01;14.10;80.10
36716;DHT22;22699;51.034;3.730;2023-04-15T16:32:26;14.20;80.20
36716;DHT22;22699;51.034;3.730;2023-04-15T16:34:52;14.20;80.90
36716;DHT22;22699;51.034;3.730;2023-04-15T16:37:19;14.20;81.60
36716;DHT22;22699;51.034;3.730;2023-04-15T16:39:45;14.10;82.30
36716;DHT22;22699;51.034;3.730;2023-04-15T16:42:10;14.10;82.60
36716;DHT22;22699;51.034;3.730;2023-04-15T16:44:38;14.20;83.30
36716;DHT22;22699;51.034;3.730;2023-04-15T16:47:04;14.10;84.20
36716;DHT22;22699;51.034;3.730;2023-04-15T16:49:32;14.00;85.10
36716;DHT22;22699;51.034;3.730;2023-04-15T16:52:00;14.00;86.10
36716;DHT22;22699;51.034;3.730;2023-04-15T16:54:33;14.00;86.30
36716;DHT22;22699;51.034;3.730;2023-04-15T16:57:01;14.00;86.90
36716;DHT22;22699;51.034;3.730;2023-04-15T16:59:29;13.80;87.40
36716;DHT22;22699;51.034;3.730;2023-04-15T17:02:04;13.80;87.20
36716;DHT22;22699;51.034;3.730;2023-04-15T17:04:30;13.70;86.80
36716;DHT22;22699;51.034;3.730;2023-04-15T17:06:58;13.60;87.20
36716;DHT22;22699;51.034;3.730;2023-04-15T17:09:23;13.50;87.20
36716;DHT22;22699;51.034;3.730;2023-04-15T17:11:52;13.30;88.20
36716;DHT22;22699;51.034;3.730;2023-04-15T17:14:18;13.20;89.10
36716;DHT22;22699;51.034;3.730;2023-04-15T17:16:44;13.20;88.80
36716;DHT22;22699;51.034;3.730;2023-04-15T17:19:13;13.20;89.70
36716;DHT22;22699;51.034;3.730;2023-04-15T17:21:47;13.20;90.00
36716;DHT22;22699;51.034;3.730;2023-04-15T17:24:13;13.20;90.10
36716;DHT22;22699;51.034;3.730;2023-04-15T17:26:40;13.20;90.50
36716;DHT22;22699;51.034;3.730;2023-04-15T17:29:07;13.20;90.70
36716;DHT22;22699;51.034;3.730;2023-04-15T17:31:35;13.20;90.80
36716;DHT22;22699;51.034;3.730;2023-04-15T17:34:05;13.20;91.10
36716;DHT22;22699;51.034;3.730;2023-04-15T17:36:32;13.10;91.30
36716;DHT22;22699;51.034;3.730;2023-04-15T17:39:02;13.10;91.70
36716;DHT22;22699;51.034;3.730;2023-04-15T17:41:28;13.00;91.90
36716;DHT22;22699;51.034;3.730;2023-04-15T17:43:58;12.90;92.40
36716;DHT22;22699;51.034;3.730;2023-04-15T17:46:25;12.80;92.60
36716;DHT22;22699;51.034;3.730;2023-04-15T17:48:52;13.00;93.50
36716;DHT22;22699;51.034;3.730;2023-04-15T17:51:18;12.70;93.80
36716;DHT22;22699;51.034;3.730;2023-04-15T17:53:45;12.70;93.90
36716;DHT22;22699;51.034;3.730;2023-04-15T17:56:17;12.70;94.00
36716;DHT22;22699;51.034;3.730;2023-04-15T17:58:43;12.60;94.00
36716;DHT22;22699;51.034;3.730;2023-04-15T18:01:09;12.50;94.20
36716;DHT22;22699;51.034;3.730;2023-04-15T18:03:35;12.30;94.40
36716;DHT22;22699;51.034;3.730;2023-04-15T18:06:04;12.20;94.20
36716;DHT22;22699;51.034;3.730;2023-04-15T18:08:31;12.20;94.40
36716;DHT22;22699;51.034;3.730;2023-04-15T18:11:01;12.20;94.30
36716;DHT22;22699;51.034;3.730;2023-04-15T18:13:31;12.20;94.40
36716;DHT22;22699;51.034;3.730;2023-04-15T18:16:03;12.10;93.90
36716;DHT22;22699;51.034;3.730;2023-04-15T18:18:32;12.10;93.80
36716;DHT22;22699;51.034;3.730;2023-04-15T18:21:04;12.00;93.40
36716;DHT22;22699;51.034;3.730;2023-04-15T18:23:34;12.00;93.50
36716;DHT22;22699;51.034;3.730;2023-04-15T18:26:01;11.90;93.50
36716;DHT22;22699;51.034;3.730;2023-04-15T18:28:31;11.80;93.50
36716;DHT22;22699;51.034;3.730;2023-04-15T18:30:58;11.80;93.70
36716;DHT22;22699;51.034;3.730;2023-04-15T18:33:27;11.80;93.90
36716;DHT22;22699;51.034;3.730;2023-04-15T18:35:54;11.70;94.00
36716;DHT22;22699;51.034;3.730;2023-04-15T18:38:26;11.70;94.70
36716;DHT22;22699;51.034;3.730;2023-04-15T18:41:08;11.60;95.20
36716;DHT22;22699;51.034;3.730;2023-04-15T18:43:35;11.60;96.00
36716;DHT22;22699;51.034;3.730;2023-04-15T18:46:01;11.50;96.60
36716;DHT22;22699;51.034;3.730;2023-04-15T18:48:29;11.40;97.00
36716;DHT22;22699;51.034;3.730;2023-04-15T18:51:02;11.30;97.50
36716;DHT22;22699;51.034;3.730;2023-04-15T18:53:27;11.20;97.90
36716;DHT22;22699;51.034;3.730;2023-04-15T18:55:53;11.20;98.50
36716;DHT22;22699;51.034;3.730;2023-04-15T18:58:21;11.10;99.10
36716;DHT22;22699;51.034;3.730;2023-04-15T19:00:46;11.10;99.40
36716;DHT22;22699;51.034;3.730;2023-04-15T19:03:13;11.10;99.80
36716;DHT22;22699;51.034;3.730;2023-04-15T19:05:40;11.10;99.90
36716;DHT22;22699;51.034;3.730;2023-04-15T19:08:08;11.00;99.90
36716;DHT22;22699;51.034;3.730;2023-04-15T19:10:44;11.00;99.90
36716;DHT22;22699;51.034;3.730;2023-04-15T19:13:13;11.00;99.90
36716;DHT22;22699;51.034;3.730;2023-04-15T19:15:46;10.90;99.90
36716;DHT22;22699;51.034;3.730;2023-04-15T19:21:32;10.90;99.90
36716;DHT22;22699;51.034;3.730;2023-04-15T19:24:15;10.90;99.90
36716;DHT22;22699;51.034;3.730;2023-04-15T19:26:48;10.80;99.90
36716;DHT22;22699;51.034;3.730;2023-04-15T19:29:20;10.80;99.90
36716;DHT22;22699;51.034;3.730;2023-04-15T19:31:52;10.70;99.90
36716;DHT22;22699;51.034;3.730;2023-04-15T19:34:22;10.70;99.90